sensor_id;sensor_type;location;lat;lon;timestamp;P1;durP1;ratioP1;P2;durP2;ratioP2
8058;SDS011;4072;42.668;23.396;2023-05-10T00:00:46;9.90;;;8.90;;
8058;SDS011;4072;42.668;23.396;2023-05-10T00:03:15;10.70;;;9.17;;
8058;SDS011;4072;42.668;23.396;2023-05-10T00:05:44;10.63;;;9.63;;
8058;SDS011;4072;42.668;23.396;2023-05-10T00:08:12;11.00;;;9.90;;
8058;SDS011;4072;42.668;23.396;2023-05-10T00:10:40;11.93;;;10.73;;
8058;SDS011;4072;42.668;23.396;2023-05-10T00:13:08;11.63;;;9.47;;
8058;SDS011;4072;42.668;23.396;2023-05-10T00:15:36;11.00;;;9.93;;
8058;SDS011;4072;42.668;23.396;2023-05-10T00:18:05;11.97;;;10.77;;
8058;SDS011;4072;42.668;23.396;2023-05-10T00:20:36;10.47;;;9.47;;
8058;SDS011;4072;42.668;23.396;2023-05-10T00:23:04;9.03;;;8.23;;
8058;SDS011;4072;42.668;23.396;2023-05-10T00:25:32;11.60;;;10.47;;
8058;SDS011;4072;42.668;23.396;2023-05-10T00:28:01;10.80;;;9.70;;
8058;SDS011;4072;42.668;23.396;2023-05-10T00:30:29;11.40;;;10.30;;
8058;SDS011;4072;42.668;23.396;2023-05-10T00:33:00;9.17;;;7.10;;
8058;SDS011;4072;42.668;23.396;2023-05-10T00:35:28;9.23;;;8.33;;
8058;SDS011;4072;42.668;23.396;2023-05-10T00:37:59;11.20;;;10.13;;
8058;SDS011;4072;42.668;23.396;2023-05-10T00:40:27;12.67;;;11.33;;
8058;SDS011;4072;42.668;23.396;2023-05-10T00:42:55;12.57;;;11.37;;
8058;SDS011;4072;42.668;23.396;2023-05-10T00:45:24;13.40;;;12.03;;
8058;SDS011;4072;42.668;23.396;2023-05-10T00:47:54;13.47;;;12.27;;
8058;SDS011;4072;42.668;23.396;2023-05-10T00:50:24;10.93;;;9.73;;
8058;SDS011;4072;42.668;23.396;2023-05-10T00:52:53;10.53;;;9.53;;
8058;SDS011;4072;42.668;23.396;2023-05-10T00:55:23;12.53;;;11.30;;
8058;SDS011;4072;42.668;23.396;2023-05-10T00:57:52;10.97;;;9.70;;
8058;SDS011;4072;42.668;23.396;2023-05-10T01:00:22;13.50;;;11.97;;
8058;SDS011;4072;42.668;23.396;2023-05-10T01:02:50;10.77;;;9.70;;
8058;SDS011;4072;42.668;23.396;2023-05-10T01:05:20;10.13;;;9.20;;
8058;SDS011;4072;42.668;23.396;2023-05-10T01:07:48;12.03;;;10.83;;
8058;SDS011;4072;42.668;23.396;2023-05-10T01:10:18;11.27;;;10.10;;
8058;SDS011;4072;42.668;23.396;2023-05-10T01:12:49;8.40;;;7.53;;
8058;SDS011;4072;42.668;23.396;2023-05-10T01:15:18;8.30;;;7.37;;
8058;SDS011;4072;42.668;23.396;2023-05-10T01:17:48;7.87;;;7.07;;
8058;SDS011;4072;42.668;23.396;2023-05-10T01:20:17;8.93;;;8.13;;
8058;SDS011;4072;42.668;23.396;2023-05-10T01:23:03;8.07;;;7.37;;
8058;SDS011;4072;42.668;23.396;2023-05-10T01:26:07;8.37;;;7.47;;
8058;SDS011;4072;42.668;23.396;2023-05-10T01:28:53;9.63;;;8.70;;
8058;SDS011;4072;42.668;23.396;2023-05-10T01:34:32;9.80;;;8.90;;
8058;SDS011;4072;42.668;23.396;2023-05-10T01:37:05;7.40;;;6.73;;
8058;SDS011;4072;42.668;23.396;2023-05-10T01:39:40;8.50;;;7.77;;
8058;SDS011;4072;42.668;23.396;2023-05-10T01:42:17;8.60;;;7.90;;
8058;SDS011;4072;42.668;23.396;2023-05-10T01:44:50;8.17;;;7.37;;
8058;SDS011;4072;42.668;23.396;2023-05-10T01:47:30;6.83;;;6.23;;
8058;SDS011;4072;42.668;23.396;2023-05-10T01:50:07;8.27;;;7.50;;
8058;SDS011;4072;42.668;23.396;2023-05-10T01:52:44;7.43;;;6.73;;
8058;SDS011;4072;42.668;23.396;2023-05-10T01:55:18;8.00;;;7.20;;
8058;SDS011;4072;42.668;23.396;2023-05-10T01:57:50;7.40;;;6.80;;
8058;SDS011;4072;42.668;23.396;2023-05-10T02:00:22;6.63;;;6.03;;
8058;SDS011;4072;42.668;23.396;2023-05-10T02:02:53;7.27;;;6.43;;
8058;SDS011;4072;42.668;23.396;2023-05-10T02:05:23;7.37;;;6.67;;
8058;SDS011;4072;42.668;23.396;2023-05-10T02:07:54;6.63;;;6.03;;
8058;SDS011;4072;42.668;23.396;2023-05-10T02:10:24;7.07;;;6.37;;
8058;SDS011;4072;42.668;23.396;2023-05-10T02:12:52;7.77;;;7.07;;
8058;SDS011;4072;42.668;23.396;2023-05-10T02:15:24;6.53;;;5.93;;
8058;SDS011;4072;42.668;23.396;2023-05-10T02:17:57;7.17;;;6.57;;
8058;SDS011;4072;42.668;23.396;2023-05-10T02:20:27;8.80;;;7.97;;
8058;SDS011;4072;42.668;23.396;2023-05-10T02:22:59;5.93;;;5.40;;
8058;SDS011;4072;42.668;23.396;2023-05-10T02:25:30;7.10;;;5.50;;
8058;SDS011;4072;42.668;23.396;2023-05-10T02:28:01;5.67;;;5.07;;
8058;SDS011;4072;42.668;23.396;2023-05-10T02:30:31;5.00;;;4.50;;
8058;SDS011;4072;42.668;23.396;2023-05-10T02:33:03;4.10;;;3.80;;
8058;SDS011;4072;42.668;23.396;2023-05-10T02:35:34;5.57;;;5.03;;
8058;SDS011;4072;42.668;23.396;2023-05-10T02:38:04;5.47;;;4.97;;
8058;SDS011;4072;42.668;23.396;2023-05-10T02:40:33;6.70;;;5.77;;
8058;SDS011;4072;42.668;23.396;2023-05-10T02:43:04;4.97;;;4.47;;
8058;SDS011;4072;42.668;23.396;2023-05-10T02:45:37;5.33;;;4.70;;
8058;SDS011;4072;42.668;23.396;2023-05-10T02:48:08;5.37;;;4.87;;
8058;SDS011;4072;42.668;23.396;2023-05-10T02:50:36;4.87;;;4.37;;
8058;SDS011;4072;42.668;23.396;2023-05-10T02:53:11;5.90;;;4.87;;
8058;SDS011;4072;42.668;23.396;2023-05-10T02:55:43;5.40;;;4.37;;
8058;SDS011;4072;42.668;23.396;2023-05-10T02:58:16;5.87;;;5.27;;
8058;SDS011;4072;42.668;23.396;2023-05-10T03:00:45;5.83;;;5.23;;
8058;SDS011;4072;42.668;23.396;2023-05-10T03:03:15;5.20;;;4.77;;
8058;SDS011;4072;42.668;23.396;2023-05-10T03:05:43;5.37;;;4.87;;
8058;SDS011;4072;42.668;23.396;2023-05-10T03:08:14;4.97;;;4.47;;
8058;SDS011;4072;42.668;23.396;2023-05-10T03:10:45;6.27;;;4.70;;
8058;SDS011;4072;42.668;23.396;2023-05-10T03:13:25;6.83;;;5.90;;
8058;SDS011;4072;42.668;23.396;2023-05-10T03:16:06;4.87;;;4.47;;
8058;SDS011;4072;42.668;23.396;2023-05-10T03:18:43;5.23;;;4.73;;
8058;SDS011;4072;42.668;23.396;2023-05-10T03:21:16;6.00;;;4.90;;
8058;SDS011;4072;42.668;23.396;2023-05-10T03:23:47;5.53;;;5.03;;
8058;SDS011;4072;42.668;23.396;2023-05-10T03:26:20;6.33;;;4.83;;
8058;SDS011;4072;42.668;23.396;2023-05-10T03:28:52;5.93;;;5.13;;
8058;SDS011;4072;42.668;23.396;2023-05-10T03:31:21;7.03;;;5.43;;
8058;SDS011;4072;42.668;23.396;2023-05-10T03:33:52;6.37;;;4.40;;
8058;SDS011;4072;42.668;23.396;2023-05-10T03:36:20;4.50;;;4.10;;
8058;SDS011;4072;42.668;23.396;2023-05-10T03:38:49;5.33;;;4.63;;
8058;SDS011;4072;42.668;23.396;2023-05-10T03:41:18;6.13;;;3.93;;
8058;SDS011;4072;42.668;23.396;2023-05-10T03:43:47;5.63;;;3.77;;
8058;SDS011;4072;42.668;23.396;2023-05-10T03:46:14;6.90;;;4.93;;
8058;SDS011;4072;42.668;23.396;2023-05-10T03:48:43;4.67;;;4.27;;
8058;SDS011;4072;42.668;23.396;2023-05-10T03:51:12;4.77;;;4.37;;
8058;SDS011;4072;42.668;23.396;2023-05-10T03:53:42;4.90;;;4.50;;
8058;SDS011;4072;42.668;23.396;2023-05-10T03:56:10;4.90;;;4.40;;
8058;SDS011;4072;42.668;23.396;2023-05-10T03:58:38;5.97;;;5.37;;
8058;SDS011;4072;42.668;23.396;2023-05-10T04:01:07;5.20;;;4.77;;
8058;SDS011;4072;42.668;23.396;2023-05-10T04:03:35;5.57;;;5.07;;
8058;SDS011;4072;42.668;23.396;2023-05-10T04:06:04;6.60;;;5.50;;
8058;SDS011;4072;42.668;23.396;2023-05-10T04:08:37;6.30;;;5.03;;
8058;SDS011;4072;42.668;23.396;2023-05-10T04:11:05;5.43;;;4.93;;
8058;SDS011;4072;42.668;23.396;2023-05-10T04:13:34;7.70;;;5.30;;
8058;SDS011;4072;42.668;23.396;2023-05-10T04:16:03;6.23;;;5.20;;
8058;SDS011;4072;42.668;23.396;2023-05-10T04:18:33;5.40;;;4.90;;
8058;SDS011;4072;42.668;23.396;2023-05-10T04:21:01;6.27;;;5.07;;
8058;SDS011;4072;42.668;23.396;2023-05-10T04:23:30;5.03;;;4.23;;
8058;SDS011;4072;42.668;23.396;2023-05-10T04:26:02;6.23;;;4.83;;
8058;SDS011;4072;42.668;23.396;2023-05-10T04:28:30;5.97;;;5.37;;
8058;SDS011;4072;42.668;23.396;2023-05-10T04:31:02;5.33;;;4.50;;
8058;SDS011;4072;42.668;23.396;2023-05-10T04:33:31;5.23;;;4.57;;
8058;SDS011;4072;42.668;23.396;2023-05-10T04:36:00;5.97;;;4.37;;
8058;SDS011;4072;42.668;23.396;2023-05-10T04:38:28;5.40;;;4.80;;
8058;SDS011;4072;42.668;23.396;2023-05-10T04:41:05;4.80;;;4.40;;
8058;SDS011;4072;42.668;23.396;2023-05-10T04:43:34;5.77;;;5.17;;
8058;SDS011;4072;42.668;23.396;2023-05-10T04:46:03;5.70;;;5.20;;
8058;SDS011;4072;42.668;23.396;2023-05-10T04:48:33;5.80;;;4.67;;
8058;SDS011;4072;42.668;23.396;2023-05-10T04:51:01;7.73;;;6.30;;
8058;SDS011;4072;42.668;23.396;2023-05-10T04:53:30;5.70;;;5.20;;
8058;SDS011;4072;42.668;23.396;2023-05-10T04:55:58;6.50;;;5.43;;
8058;SDS011;4072;42.668;23.396;2023-05-10T04:58:28;6.73;;;5.80;;
8058;SDS011;4072;42.668;23.396;2023-05-10T05:00:57;6.33;;;4.93;;
8058;SDS011;4072;42.668;23.396;2023-05-10T05:03:32;6.53;;;5.43;;
8058;SDS011;4072;42.668;23.396;2023-05-10T05:06:03;7.03;;;5.57;;
8058;SDS011;4072;42.668;23.396;2023-05-10T05:08:31;5.83;;;4.87;;
8058;SDS011;4072;42.668;23.396;2023-05-10T05:11:02;6.13;;;5.33;;
8058;SDS011;4072;42.668;23.396;2023-05-10T05:13:31;7.50;;;6.00;;
8058;SDS011;4072;42.668;23.396;2023-05-10T05:16:00;6.90;;;6.20;;
8058;SDS011;4072;42.668;23.396;2023-05-10T05:18:30;6.57;;;5.97;;
8058;SDS011;4072;42.668;23.396;2023-05-10T05:20:58;6.80;;;5.83;;
8058;SDS011;4072;42.668;23.396;2023-05-10T05:23:26;8.53;;;6.10;;
8058;SDS011;4072;42.668;23.396;2023-05-10T05:25:55;6.87;;;6.23;;
8058;SDS011;4072;42.668;23.396;2023-05-10T05:28:23;7.17;;;6.17;;
8058;SDS011;4072;42.668;23.396;2023-05-10T05:30:53;6.93;;;6.30;;
8058;SDS011;4072;42.668;23.396;2023-05-10T05:33:21;6.83;;;6.13;;
8058;SDS011;4072;42.668;23.396;2023-05-10T05:35:50;7.13;;;6.43;;
8058;SDS011;4072;42.668;23.396;2023-05-10T05:38:19;6.23;;;5.47;;
8058;SDS011;4072;42.668;23.396;2023-05-10T05:40:47;6.60;;;5.97;;
8058;SDS011;4072;42.668;23.396;2023-05-10T05:43:17;5.37;;;4.87;;
8058;SDS011;4072;42.668;23.396;2023-05-10T05:45:49;6.13;;;5.50;;
8058;SDS011;4072;42.668;23.396;2023-05-10T05:48:21;8.63;;;6.57;;
8058;SDS011;4072;42.668;23.396;2023-05-10T05:50:50;6.63;;;6.07;;
8058;SDS011;4072;42.668;23.396;2023-05-10T05:53:21;7.17;;;6.47;;
8058;SDS011;4072;42.668;23.396;2023-05-10T05:55:50;6.67;;;5.40;;
8058;SDS011;4072;42.668;23.396;2023-05-10T05:58:20;8.10;;;6.37;;
8058;SDS011;4072;42.668;23.396;2023-05-10T06:00:48;6.83;;;6.10;;
8058;SDS011;4072;42.668;23.396;2023-05-10T06:03:18;6.67;;;5.97;;
8058;SDS011;4072;42.668;23.396;2023-05-10T06:05:48;6.83;;;6.13;;
8058;SDS011;4072;42.668;23.396;2023-05-10T06:08:17;7.60;;;6.67;;
8058;SDS011;4072;42.668;23.396;2023-05-10T06:10:46;6.17;;;5.57;;
8058;SDS011;4072;42.668;23.396;2023-05-10T06:13:14;6.63;;;5.90;;
8058;SDS011;4072;42.668;23.396;2023-05-10T06:15:43;6.20;;;5.60;;
8058;SDS011;4072;42.668;23.396;2023-05-10T06:18:12;8.10;;;6.33;;
8058;SDS011;4072;42.668;23.396;2023-05-10T06:20:41;5.90;;;5.30;;
8058;SDS011;4072;42.668;23.396;2023-05-10T06:23:11;8.00;;;6.10;;
8058;SDS011;4072;42.668;23.396;2023-05-10T06:25:39;5.70;;;5.20;;
8058;SDS011;4072;42.668;23.396;2023-05-10T06:28:08;5.97;;;5.13;;
8058;SDS011;4072;42.668;23.396;2023-05-10T06:30:36;6.47;;;5.87;;
8058;SDS011;4072;42.668;23.396;2023-05-10T06:33:05;7.07;;;5.93;;
8058;SDS011;4072;42.668;23.396;2023-05-10T06:35:33;8.43;;;6.07;;
8058;SDS011;4072;42.668;23.396;2023-05-10T06:38:03;5.00;;;4.60;;
8058;SDS011;4072;42.668;23.396;2023-05-10T06:40:34;7.60;;;5.37;;
8058;SDS011;4072;42.668;23.396;2023-05-10T06:43:03;6.40;;;5.50;;
8058;SDS011;4072;42.668;23.396;2023-05-10T06:45:31;6.50;;;5.47;;
8058;SDS011;4072;42.668;23.396;2023-05-10T06:48:00;6.63;;;5.37;;
8058;SDS011;4072;42.668;23.396;2023-05-10T06:50:28;6.03;;;4.70;;
8058;SDS011;4072;42.668;23.396;2023-05-10T06:52:57;6.43;;;5.83;;
8058;SDS011;4072;42.668;23.396;2023-05-10T06:55:25;6.80;;;5.63;;
8058;SDS011;4072;42.668;23.396;2023-05-10T06:57:56;6.47;;;4.90;;
8058;SDS011;4072;42.668;23.396;2023-05-10T07:00:24;5.20;;;4.70;;
8058;SDS011;4072;42.668;23.396;2023-05-10T07:02:53;6.03;;;5.43;;
8058;SDS011;4072;42.668;23.396;2023-05-10T07:05:21;5.43;;;4.90;;
8058;SDS011;4072;42.668;23.396;2023-05-10T07:07:50;9.57;;;6.13;;
8058;SDS011;4072;42.668;23.396;2023-05-10T07:10:18;6.97;;;5.73;;
8058;SDS011;4072;42.668;23.396;2023-05-10T07:12:46;6.90;;;6.23;;
8058;SDS011;4072;42.668;23.396;2023-05-10T07:15:16;10.10;;;6.20;;
8058;SDS011;4072;42.668;23.396;2023-05-10T07:17:45;5.97;;;5.30;;
8058;SDS011;4072;42.668;23.396;2023-05-10T07:20:13;6.77;;;5.93;;
8058;SDS011;4072;42.668;23.396;2023-05-10T07:22:42;7.53;;;5.60;;
8058;SDS011;4072;42.668;23.396;2023-05-10T07:25:11;9.97;;;6.07;;
8058;SDS011;4072;42.668;23.396;2023-05-10T07:27:40;6.80;;;5.60;;
8058;SDS011;4072;42.668;23.396;2023-05-10T07:30:09;5.17;;;4.63;;
8058;SDS011;4072;42.668;23.396;2023-05-10T07:32:40;7.60;;;6.00;;
8058;SDS011;4072;42.668;23.396;2023-05-10T07:35:09;7.63;;;6.83;;
8058;SDS011;4072;42.668;23.396;2023-05-10T07:37:38;7.37;;;6.67;;
8058;SDS011;4072;42.668;23.396;2023-05-10T07:40:06;7.10;;;6.10;;
8058;SDS011;4072;42.668;23.396;2023-05-10T07:42:36;8.57;;;7.53;;
8058;SDS011;4072;42.668;23.396;2023-05-10T07:45:05;8.20;;;7.33;;
8058;SDS011;4072;42.668;23.396;2023-05-10T07:47:34;7.30;;;6.60;;
8058;SDS011;4072;42.668;23.396;2023-05-10T07:50:05;8.33;;;7.50;;
8058;SDS011;4072;42.668;23.396;2023-05-10T07:52:34;7.93;;;6.43;;
8058;SDS011;4072;42.668;23.396;2023-05-10T07:55:03;7.13;;;5.70;;
8058;SDS011;4072;42.668;23.396;2023-05-10T07:57:32;12.90;;;6.70;;
8058;SDS011;4072;42.668;23.396;2023-05-10T08:00:01;7.50;;;6.13;;
8058;SDS011;4072;42.668;23.396;2023-05-10T08:02:30;7.20;;;6.03;;
8058;SDS011;4072;42.668;23.396;2023-05-10T08:05:00;7.37;;;6.67;;
8058;SDS011;4072;42.668;23.396;2023-05-10T08:07:30;6.77;;;5.73;;
8058;SDS011;4072;42.668;23.396;2023-05-10T08:09:59;8.27;;;6.70;;
8058;SDS011;4072;42.668;23.396;2023-05-10T08:12:27;6.43;;;5.87;;
8058;SDS011;4072;42.668;23.396;2023-05-10T08:14:56;7.00;;;6.40;;
8058;SDS011;4072;42.668;23.396;2023-05-10T08:17:24;10.57;;;7.40;;
8058;SDS011;4072;42.668;23.396;2023-05-10T08:19:53;7.93;;;6.30;;
8058;SDS011;4072;42.668;23.396;2023-05-10T08:22:21;8.67;;;7.50;;
8058;SDS011;4072;42.668;23.396;2023-05-10T08:24:51;8.53;;;6.80;;
8058;SDS011;4072;42.668;23.396;2023-05-10T08:27:19;8.70;;;7.33;;
8058;SDS011;4072;42.668;23.396;2023-05-10T08:29:47;9.53;;;7.80;;
8058;SDS011;4072;42.668;23.396;2023-05-10T08:32:16;8.13;;;7.37;;
8058;SDS011;4072;42.668;23.396;2023-05-10T08:34:44;7.17;;;5.33;;
8058;SDS011;4072;42.668;23.396;2023-05-10T08:37:13;6.60;;;5.40;;
8058;SDS011;4072;42.668;23.396;2023-05-10T08:39:43;7.10;;;6.40;;
8058;SDS011;4072;42.668;23.396;2023-05-10T08:42:13;8.93;;;6.33;;
8058;SDS011;4072;42.668;23.396;2023-05-10T08:44:44;8.33;;;7.33;;
8058;SDS011;4072;42.668;23.396;2023-05-10T08:47:16;7.90;;;7.20;;
8058;SDS011;4072;42.668;23.396;2023-05-10T08:49:47;8.17;;;7.17;;
8058;SDS011;4072;42.668;23.396;2023-05-10T08:52:17;7.17;;;6.00;;
8058;SDS011;4072;42.668;23.396;2023-05-10T08:54:47;7.00;;;6.40;;
8058;SDS011;4072;42.668;23.396;2023-05-10T08:57:18;7.10;;;6.30;;
8058;SDS011;4072;42.668;23.396;2023-05-10T08:59:46;7.03;;;6.10;;
8058;SDS011;4072;42.668;23.396;2023-05-10T09:02:15;9.03;;;6.13;;
8058;SDS011;4072;42.668;23.396;2023-05-10T09:04:44;7.97;;;7.23;;
8058;SDS011;4072;42.668;23.396;2023-05-10T09:07:13;7.93;;;6.93;;
8058;SDS011;4072;42.668;23.396;2023-05-10T09:09:42;10.07;;;7.03;;
8058;SDS011;4072;42.668;23.396;2023-05-10T09:12:11;11.80;;;8.33;;
8058;SDS011;4072;42.668;23.396;2023-05-10T09:14:44;10.07;;;7.37;;
8058;SDS011;4072;42.668;23.396;2023-05-10T09:17:13;11.63;;;7.77;;
8058;SDS011;4072;42.668;23.396;2023-05-10T09:19:42;9.90;;;7.20;;
8058;SDS011;4072;42.668;23.396;2023-05-10T09:22:11;8.17;;;7.37;;
8058;SDS011;4072;42.668;23.396;2023-05-10T09:24:42;7.53;;;6.77;;
8058;SDS011;4072;42.668;23.396;2023-05-10T09:27:11;10.80;;;7.77;;
8058;SDS011;4072;42.668;23.396;2023-05-10T09:29:41;9.57;;;6.97;;
8058;SDS011;4072;42.668;23.396;2023-05-10T09:32:12;10.47;;;7.07;;
8058;SDS011;4072;42.668;23.396;2023-05-10T09:34:41;8.70;;;7.90;;
8058;SDS011;4072;42.668;23.396;2023-05-10T09:37:10;7.17;;;6.57;;
8058;SDS011;4072;42.668;23.396;2023-05-10T09:39:38;8.73;;;7.20;;
8058;SDS011;4072;42.668;23.396;2023-05-10T09:42:08;7.07;;;6.37;;
8058;SDS011;4072;42.668;23.396;2023-05-10T09:44:37;8.60;;;7.20;;
8058;SDS011;4072;42.668;23.396;2023-05-10T09:47:07;7.07;;;6.13;;
8058;SDS011;4072;42.668;23.396;2023-05-10T09:49:37;6.80;;;6.10;;
8058;SDS011;4072;42.668;23.396;2023-05-10T09:52:05;7.07;;;6.37;;
8058;SDS011;4072;42.668;23.396;2023-05-10T09:54:35;8.50;;;6.70;;
8058;SDS011;4072;42.668;23.396;2023-05-10T09:57:05;7.50;;;6.33;;
8058;SDS011;4072;42.668;23.396;2023-05-10T09:59:45;6.03;;;5.50;;
8058;SDS011;4072;42.668;23.396;2023-05-10T10:02:16;6.77;;;6.17;;
8058;SDS011;4072;42.668;23.396;2023-05-10T10:04:45;8.77;;;6.00;;
8058;SDS011;4072;42.668;23.396;2023-05-10T10:07:21;6.83;;;6.23;;
8058;SDS011;4072;42.668;23.396;2023-05-10T10:09:52;7.53;;;6.70;;
8058;SDS011;4072;42.668;23.396;2023-05-10T10:12:20;6.77;;;6.13;;
8058;SDS011;4072;42.668;23.396;2023-05-10T10:14:49;6.97;;;6.33;;
8058;SDS011;4072;42.668;23.396;2023-05-10T10:17:19;8.43;;;6.93;;
8058;SDS011;4072;42.668;23.396;2023-05-10T10:19:49;7.63;;;5.53;;
8058;SDS011;4072;42.668;23.396;2023-05-10T10:22:17;7.73;;;4.70;;
8058;SDS011;4072;42.668;23.396;2023-05-10T10:24:46;6.60;;;5.87;;
8058;SDS011;4072;42.668;23.396;2023-05-10T10:27:19;5.20;;;4.70;;
8058;SDS011;4072;42.668;23.396;2023-05-10T10:29:55;5.23;;;4.50;;
8058;SDS011;4072;42.668;23.396;2023-05-10T10:32:32;6.83;;;4.97;;
8058;SDS011;4072;42.668;23.396;2023-05-10T10:35:08;4.70;;;4.30;;
8058;SDS011;4072;42.668;23.396;2023-05-10T10:37:41;5.77;;;4.30;;
8058;SDS011;4072;42.668;23.396;2023-05-10T10:43:22;4.80;;;4.40;;
8058;SDS011;4072;42.668;23.396;2023-05-10T10:46:09;8.80;;;4.57;;
8058;SDS011;4072;42.668;23.396;2023-05-10T10:48:39;4.80;;;4.40;;
8058;SDS011;4072;42.668;23.396;2023-05-10T10:51:09;5.40;;;5.00;;
8058;SDS011;4072;42.668;23.396;2023-05-10T10:53:39;4.00;;;3.70;;
8058;SDS011;4072;42.668;23.396;2023-05-10T10:56:09;6.80;;;5.43;;
8058;SDS011;4072;42.668;23.396;2023-05-10T10:58:38;8.57;;;5.60;;
8058;SDS011;4072;42.668;23.396;2023-05-10T11:01:11;5.27;;;4.70;;
8058;SDS011;4072;42.668;23.396;2023-05-10T11:03:54;5.23;;;4.73;;
8058;SDS011;4072;42.668;23.396;2023-05-10T11:06:48;5.73;;;4.83;;
8058;SDS011;4072;42.668;23.396;2023-05-10T11:09:16;5.80;;;5.30;;
8058;SDS011;4072;42.668;23.396;2023-05-10T11:11:48;8.03;;;5.63;;
8058;SDS011;4072;42.668;23.396;2023-05-10T11:14:21;5.93;;;4.77;;
8058;SDS011;4072;42.668;23.396;2023-05-10T11:16:50;5.53;;;5.03;;
8058;SDS011;4072;42.668;23.396;2023-05-10T11:19:19;5.37;;;4.73;;
8058;SDS011;4072;42.668;23.396;2023-05-10T11:24:41;5.07;;;4.43;;
8058;SDS011;4072;42.668;23.396;2023-05-10T11:27:25;5.97;;;5.37;;
8058;SDS011;4072;42.668;23.396;2023-05-10T11:29:53;5.30;;;4.37;;
8058;SDS011;4072;42.668;23.396;2023-05-10T11:32:22;5.13;;;4.63;;
8058;SDS011;4072;42.668;23.396;2023-05-10T11:34:53;6.30;;;5.07;;
8058;SDS011;4072;42.668;23.396;2023-05-10T11:37:23;5.67;;;5.10;;
8058;SDS011;4072;42.668;23.396;2023-05-10T11:39:51;5.70;;;5.10;;
8058;SDS011;4072;42.668;23.396;2023-05-10T11:42:22;6.83;;;4.80;;
8058;SDS011;4072;42.668;23.396;2023-05-10T11:44:50;7.90;;;5.10;;
8058;SDS011;4072;42.668;23.396;2023-05-10T11:47:19;5.97;;;5.07;;
8058;SDS011;4072;42.668;23.396;2023-05-10T11:49:47;7.30;;;5.30;;
8058;SDS011;4072;42.668;23.396;2023-05-10T11:52:17;7.53;;;5.00;;
8058;SDS011;4072;42.668;23.396;2023-05-10T11:54:52;5.00;;;4.53;;
8058;SDS011;4072;42.668;23.396;2023-05-10T11:57:21;5.53;;;5.03;;
8058;SDS011;4072;42.668;23.396;2023-05-10T11:59:56;6.50;;;5.80;;
8058;SDS011;4072;42.668;23.396;2023-05-10T12:02:25;7.70;;;5.47;;
8058;SDS011;4072;42.668;23.396;2023-05-10T12:04:54;7.33;;;5.60;;
8058;SDS011;4072;42.668;23.396;2023-05-10T12:07:23;9.30;;;5.07;;
8058;SDS011;4072;42.668;23.396;2023-05-10T12:10:05;5.73;;;4.80;;
8058;SDS011;4072;42.668;23.396;2023-05-10T12:12:37;6.17;;;5.57;;
8058;SDS011;4072;42.668;23.396;2023-05-10T12:15:11;8.30;;;6.23;;
8058;SDS011;4072;42.668;23.396;2023-05-10T12:17:41;8.53;;;6.57;;
8058;SDS011;4072;42.668;23.396;2023-05-10T12:20:12;7.07;;;6.20;;
8058;SDS011;4072;42.668;23.396;2023-05-10T12:22:45;7.47;;;6.47;;
8058;SDS011;4072;42.668;23.396;2023-05-10T12:25:18;8.37;;;7.23;;
8058;SDS011;4072;42.668;23.396;2023-05-10T12:27:48;7.77;;;5.73;;
8058;SDS011;4072;42.668;23.396;2023-05-10T12:30:21;6.53;;;5.83;;
8058;SDS011;4072;42.668;23.396;2023-05-10T12:32:50;6.77;;;6.10;;
8058;SDS011;4072;42.668;23.396;2023-05-10T12:35:19;8.33;;;6.53;;
8058;SDS011;4072;42.668;23.396;2023-05-10T12:37:50;6.60;;;6.00;;
8058;SDS011;4072;42.668;23.396;2023-05-10T12:40:21;8.57;;;5.87;;
8058;SDS011;4072;42.668;23.396;2023-05-10T12:42:49;6.30;;;5.57;;
8058;SDS011;4072;42.668;23.396;2023-05-10T12:45:18;7.60;;;6.90;;
8058;SDS011;4072;42.668;23.396;2023-05-10T12:47:49;9.00;;;6.43;;
8058;SDS011;4072;42.668;23.396;2023-05-10T12:50:19;8.27;;;5.97;;
8058;SDS011;4072;42.668;23.396;2023-05-10T12:52:47;7.40;;;6.70;;
8058;SDS011;4072;42.668;23.396;2023-05-10T12:55:15;12.27;;;7.40;;
8058;SDS011;4072;42.668;23.396;2023-05-10T12:57:45;8.27;;;6.63;;
8058;SDS011;4072;42.668;23.396;2023-05-10T13:00:14;7.50;;;5.67;;
8058;SDS011;4072;42.668;23.396;2023-05-10T13:02:43;6.90;;;5.83;;
8058;SDS011;4072;42.668;23.396;2023-05-10T13:05:11;6.17;;;5.57;;
8058;SDS011;4072;42.668;23.396;2023-05-10T13:07:41;6.70;;;6.00;;
8058;SDS011;4072;42.668;23.396;2023-05-10T13:10:11;5.33;;;4.93;;
8058;SDS011;4072;42.668;23.396;2023-05-10T13:12:42;8.00;;;5.37;;
8058;SDS011;4072;42.668;23.396;2023-05-10T13:15:13;10.53;;;5.63;;
8058;SDS011;4072;42.668;23.396;2023-05-10T13:17:41;8.57;;;5.10;;
8058;SDS011;4072;42.668;23.396;2023-05-10T13:20:12;7.13;;;5.67;;
8058;SDS011;4072;42.668;23.396;2023-05-10T13:22:42;7.47;;;4.97;;
8058;SDS011;4072;42.668;23.396;2023-05-10T13:25:11;6.00;;;5.40;;
8058;SDS011;4072;42.668;23.396;2023-05-10T13:27:40;7.30;;;5.87;;
8058;SDS011;4072;42.668;23.396;2023-05-10T13:30:08;7.47;;;4.87;;
8058;SDS011;4072;42.668;23.396;2023-05-10T13:32:39;6.50;;;4.87;;
8058;SDS011;4072;42.668;23.396;2023-05-10T13:35:07;6.03;;;4.70;;
8058;SDS011;4072;42.668;23.396;2023-05-10T13:37:36;6.77;;;4.90;;
8058;SDS011;4072;42.668;23.396;2023-05-10T13:40:06;9.97;;;5.27;;
8058;SDS011;4072;42.668;23.396;2023-05-10T13:42:34;8.03;;;4.97;;
8058;SDS011;4072;42.668;23.396;2023-05-10T13:45:04;6.07;;;5.40;;
8058;SDS011;4072;42.668;23.396;2023-05-10T13:47:34;4.60;;;4.20;;
8058;SDS011;4072;42.668;23.396;2023-05-10T13:50:06;6.33;;;5.47;;
8058;SDS011;4072;42.668;23.396;2023-05-10T13:52:36;5.70;;;5.10;;
8058;SDS011;4072;42.668;23.396;2023-05-10T13:55:05;8.00;;;5.43;;
8058;SDS011;4072;42.668;23.396;2023-05-10T13:57:33;5.17;;;4.77;;
8058;SDS011;4072;42.668;23.396;2023-05-10T14:00:02;5.73;;;4.90;;
8058;SDS011;4072;42.668;23.396;2023-05-10T14:02:32;5.50;;;4.87;;
8058;SDS011;4072;42.668;23.396;2023-05-10T14:05:00;5.60;;;5.07;;
8058;SDS011;4072;42.668;23.396;2023-05-10T14:07:30;6.47;;;5.60;;
8058;SDS011;4072;42.668;23.396;2023-05-10T14:09:59;6.27;;;5.67;;
8058;SDS011;4072;42.668;23.396;2023-05-10T14:12:27;5.20;;;4.70;;
8058;SDS011;4072;42.668;23.396;2023-05-10T14:14:55;8.83;;;4.77;;
8058;SDS011;4072;42.668;23.396;2023-05-10T14:17:24;5.20;;;4.63;;
8058;SDS011;4072;42.668;23.396;2023-05-10T14:19:53;9.23;;;5.57;;
8058;SDS011;4072;42.668;23.396;2023-05-10T14:22:23;6.17;;;5.60;;
8058;SDS011;4072;42.668;23.396;2023-05-10T14:24:52;6.03;;;5.10;;
8058;SDS011;4072;42.668;23.396;2023-05-10T14:27:20;5.90;;;5.30;;
8058;SDS011;4072;42.668;23.396;2023-05-10T14:29:48;6.43;;;5.87;;
8058;SDS011;4072;42.668;23.396;2023-05-10T14:32:19;6.77;;;5.50;;
8058;SDS011;4072;42.668;23.396;2023-05-10T14:34:47;5.70;;;5.20;;
8058;SDS011;4072;42.668;23.396;2023-05-10T14:37:15;6.83;;;5.70;;
8058;SDS011;4072;42.668;23.396;2023-05-10T14:39:44;6.07;;;5.57;;
8058;SDS011;4072;42.668;23.396;2023-05-10T14:42:15;6.10;;;5.47;;
8058;SDS011;4072;42.668;23.396;2023-05-10T14:44:43;6.00;;;5.17;;
8058;SDS011;4072;42.668;23.396;2023-05-10T14:47:11;7.73;;;5.03;;
8058;SDS011;4072;42.668;23.396;2023-05-10T14:49:40;7.23;;;5.77;;
8058;SDS011;4072;42.668;23.396;2023-05-10T14:55:32;6.10;;;5.43;;
8058;SDS011;4072;42.668;23.396;2023-05-10T14:58:02;6.33;;;5.70;;
8058;SDS011;4072;42.668;23.396;2023-05-10T15:00:31;6.67;;;5.17;;
8058;SDS011;4072;42.668;23.396;2023-05-10T15:03:00;6.77;;;5.67;;
8058;SDS011;4072;42.668;23.396;2023-05-10T15:05:30;5.90;;;5.30;;
8058;SDS011;4072;42.668;23.396;2023-05-10T15:07:58;5.40;;;4.90;;
8058;SDS011;4072;42.668;23.396;2023-05-10T15:10:26;5.30;;;4.80;;
8058;SDS011;4072;42.668;23.396;2023-05-10T15:12:54;6.23;;;5.30;;
8058;SDS011;4072;42.668;23.396;2023-05-10T15:15:25;5.23;;;4.73;;
8058;SDS011;4072;42.668;23.396;2023-05-10T15:17:53;5.77;;;5.00;;
8058;SDS011;4072;42.668;23.396;2023-05-10T15:20:21;5.77;;;5.17;;
8058;SDS011;4072;42.668;23.396;2023-05-10T15:22:50;5.73;;;4.90;;
8058;SDS011;4072;42.668;23.396;2023-05-10T15:25:18;6.47;;;4.80;;
8058;SDS011;4072;42.668;23.396;2023-05-10T15:27:48;6.33;;;5.23;;
8058;SDS011;4072;42.668;23.396;2023-05-10T15:30:18;7.37;;;5.27;;